Time;durP1;ratioP1;P1;durP2;ratioP2;P2;SDS_P1;SDS_P2;PMS_P1;PMS_P2;Temp;Humidity;BMP_temperature;BMP_pressure;BME280_temperature;BME280_humidity;BME280_pressure;Samples;Min_cycle;Max_cycle;Signal;HPM_P1;HPM_P2
2022/11/06 00:00:22;;;;;;;5.13;2.05;;;20.40;47.30;;;;;;5011101;28;20381;-54
2022/11/06 00:02:58;;;;;;;6.43;1.90;;;20.40;47.30;;;;;;5010999;28;20193;-59
2022/11/06 00:08:16;;;;;;;5.97;1.90;;;20.50;47.20;;;;;;5011900;28;20293;-55
2022/11/06 00:10:46;;;;;;;3.58;1.52;;;20.50;47.20;;;;;;5011197;28;20645;-66
2022/11/06 00:13:17;;;;;;;4.32;1.83;;;20.50;47.00;;;;;;5011423;28;20199;-54
2022/11/06 00:15:48;;;;;;;6.75;2.25;;;20.50;47.00;;;;;;5011254;28;20649;-60
2022/11/06 00:18:21;;;;;;;4.43;1.80;;;20.60;47.00;;;;;;5010209;28;20200;-63
2022/11/06 00:20:52;;;;;;;6.32;2.10;;;20.60;46.90;;;;;;5010784;28;20204;-55
2022/11/06 00:23:24;;;;;;;6.32;1.75;;;20.60;46.90;;;;;;5029854;28;20196;-60
2022/11/06 00:25:55;;;;;;;5.68;1.90;;;20.60;46.90;;;;;;5030970;28;20562;-59
2022/11/06 00:28:26;;;;;;;5.63;1.75;;;20.60;46.90;;;;;;5031262;28;20193;-57
2022/11/06 00:31:04;;;;;;;6.93;2.20;;;20.60;46.90;;;;;;5030955;28;20216;-63
2022/11/06 00:33:37;;;;;;;4.70;2.15;;;20.60;46.90;;;;;;5031147;28;20202;-52
2022/11/06 00:36:09;;;;;;;6.22;2.10;;;20.70;46.90;;;;;;5030850;28;20207;-58
2022/11/06 00:38:41;;;;;;;4.57;1.70;;;20.70;46.90;;;;;;5030814;28;20231;-58
2022/11/06 00:41:13;;;;;;;6.95;1.92;;;20.70;46.80;;;;;;5030869;28;20753;-58
2022/11/06 00:43:44;;;;;;;7.07;2.33;;;20.70;46.70;;;;;;5030812;28;20207;-60
2022/11/06 00:46:16;;;;;;;5.68;2.00;;;20.70;46.70;;;;;;5030970;28;20204;-65
2022/11/06 00:48:48;;;;;;;4.93;2.00;;;20.80;46.70;;;;;;5028433;28;20347;-56
2022/11/06 00:51:21;;;;;;;5.15;1.83;;;20.80;46.60;;;;;;5010713;28;20201;-52
2022/11/06 00:53:55;;;;;;;5.20;1.92;;;20.80;46.60;;;;;;5015761;28;20698;-62
2022/11/06 00:56:29;;;;;;;4.95;2.10;;;20.80;46.50;;;;;;5031002;28;20577;-61
2022/11/06 00:59:02;;;;;;;6.53;1.90;;;20.90;47.20;;;;;;5034483;28;20307;-57
2022/11/06 01:01:34;;;;;;;6.72;2.17;;;20.80;46.50;;;;;;5034261;28;20204;-65
2022/11/06 01:04:09;;;;;;;6.80;1.95;;;20.90;46.50;;;;;;5033500;28;20200;-53
2022/11/06 01:06:42;;;;;;;4.97;1.70;;;20.80;46.40;;;;;;5033758;28;20652;-60
2022/11/06 01:09:14;;;;;;;5.82;1.80;;;20.90;46.40;;;;;;5034140;28;20216;-61
2022/11/06 01:11:46;;;;;;;5.18;1.70;;;20.90;46.40;;;;;;5034094;28;20200;-61
2022/11/06 01:14:19;;;;;;;6.30;1.75;;;20.90;46.70;;;;;;5034153;28;20223;-59
2022/11/06 01:16:50;;;;;;;3.72;1.77;;;20.90;46.30;;;;;;5033937;28;20199;-62
2022/11/06 01:19:24;;;;;;;5.40;1.90;;;20.90;46.30;;;;;;5026944;28;20243;-59
2022/11/06 01:21:55;;;;;;;5.18;2.25;;;20.90;46.30;;;;;;5013751;28;20255;-59
2022/11/06 01:24:27;;;;;;;5.03;1.98;;;20.90;46.30;;;;;;5013971;28;20197;-59
2022/11/06 01:26:58;;;;;;;4.50;1.75;;;21.00;46.30;;;;;;5013965;28;20193;-63
2022/11/06 01:29:29;;;;;;;5.10;1.70;;;21.00;46.20;;;;;;5013918;28;20304;-58
2022/11/06 01:31:59;;;;;;;8.70;2.15;;;21.00;46.20;;;;;;5013803;28;20688;-64
2022/11/06 01:34:32;;;;;;;4.88;1.90;;;21.00;46.20;;;;;;5014145;28;20236;-64
2022/11/06 01:37:03;;;;;;;4.05;1.73;;;21.00;46.20;;;;;;5013825;28;20193;-64
2022/11/06 01:39:34;;;;;;;6.07;1.90;;;21.10;46.20;;;;;;5013695;28;20569;-60
2022/11/06 01:42:04;;;;;;;5.43;1.98;;;21.00;46.20;;;;;;5013547;28;20223;-60
2022/11/06 01:45:17;;;;;;;10.52;2.13;;;21.00;46.20;;;;;;5013654;28;20200;-63
2022/11/06 01:47:48;;;;;;;4.03;1.90;;;21.10;46.20;;;;;;5013721;28;20200;-63
2022/11/06 01:50:21;;;;;;;5.45;1.88;;;21.10;46.10;;;;;;5013484;28;20243;-60
2022/11/06 01:52:52;;;;;;;5.15;2.17;;;21.10;46.10;;;;;;5013607;28;20204;-61
2022/11/06 01:55:26;;;;;;;8.65;2.35;;;21.10;46.10;;;;;;5013569;28;20359;-61
2022/11/06 01:57:58;;;;;;;5.32;2.03;;;21.00;46.10;;;;;;5013477;28;20192;-58
2022/11/06 02:00:30;;;;;;;7.05;2.13;;;21.10;46.10;;;;;;5013094;28;20224;-65
2022/11/06 02:03:01;;;;;;;3.95;1.77;;;21.10;46.10;;;;;;5012958;28;20201;-57
2022/11/06 02:05:33;;;;;;;5.43;1.90;;;21.10;46.10;;;;;;5013440;28;20203;-60
2022/11/06 02:08:04;;;;;;;9.32;2.40;;;21.10;46.00;;;;;;5012645;28;20237;-58
2022/11/06 02:10:35;;;;;;;9.88;2.42;;;21.10;46.10;;;;;;5013077;28;20221;-53
2022/11/06 02:13:17;;;;;;;5.72;2.15;;;21.10;46.20;;;;;;5012657;28;20197;-56
2022/11/06 02:15:53;;;;;;;4.55;1.80;;;21.10;46.20;;;;;;5012231;28;20220;-61
2022/11/06 02:18:59;;;;;;;9.82;2.80;;;21.20;46.40;;;;;;5010238;28;20280;-60
2022/11/06 02:21:55;;;;;;;8.25;2.22;;;21.20;46.50;;;;;;4933904;29;20211;-61
2022/11/06 02:24:55;;;;;;;6.22;2.25;;;21.20;46.40;;;;;;4998957;28;20604;-61
2022/11/06 02:27:31;;;;;;;5.50;1.95;;;21.20;46.30;;;;;;5007354;28;20245;-57
2022/11/06 02:30:06;;;;;;;4.07;2.00;;;21.20;46.10;;;;;;5017826;28;20220;-61
2022/11/06 02:32:43;;;;;;;6.72;2.42;;;21.20;46.10;;;;;;5011630;28;20480;-61
2022/11/06 02:35:20;;;;;;;5.55;1.80;;;21.30;46.10;;;;;;5012173;28;20238;-61
2022/11/06 02:37:54;;;;;;;4.20;1.77;;;21.30;46.10;;;;;;5011313;28;20232;-57
2022/11/06 02:40:28;;;;;;;9.45;2.30;;;21.30;46.10;;;;;;5011400;28;20209;-60
2022/11/06 02:43:03;;;;;;;6.75;2.28;;;21.30;46.10;;;;;;5011268;28;20200;-63
2022/11/06 02:45:45;;;;;;;5.30;1.95;;;21.30;46.10;;;;;;5011944;28;20181;-52
2022/11/06 02:48:19;;;;;;;7.10;2.00;;;21.40;46.20;;;;;;5011690;28;20192;-48
2022/11/06 02:50:55;;;;;;;5.95;2.20;;;21.40;46.10;;;;;;5010859;28;20211;-60
2022/11/06 02:53:27;;;;;;;6.97;2.00;;;21.40;46.10;;;;;;5011937;28;20267;-59
2022/11/06 02:56:04;;;;;;;6.43;2.13;;;21.40;46.10;;;;;;5011143;28;20239;-55
2022/11/06 02:58:42;;;;;;;4.50;2.05;;;21.40;46.00;;;;;;5011134;28;20192;-54
2022/11/06 03:01:18;;;;;;;7.00;2.05;;;21.40;45.90;;;;;;5011465;28;20208;-59
2022/11/06 03:03:54;;;;;;;4.53;2.40;;;21.50;45.90;;;;;;5011378;28;20288;-61
2022/11/06 03:06:31;;;;;;;4.45;1.95;;;21.50;45.80;;;;;;5010906;28;20208;-62
2022/11/06 03:09:07;;;;;;;4.70;1.55;;;21.50;45.80;;;;;;5006231;28;20463;-61
2022/11/06 03:11:39;;;;;;;7.07;2.45;;;21.60;45.80;;;;;;5019937;28;20188;-60
2022/11/06 03:14:18;;;;;;;5.53;2.15;;;21.60;45.90;;;;;;5026794;28;20193;-62
2022/11/06 03:16:56;;;;;;;5.32;2.38;;;21.60;45.80;;;;;;5011474;28;20232;-63
2022/11/06 03:19:32;;;;;;;4.65;1.80;;;21.60;45.80;;;;;;5010809;28;20212;-59
2022/11/06 03:22:08;;;;;;;5.15;1.85;;;21.60;45.80;;;;;;5011295;28;20566;-62
2022/11/06 03:24:46;;;;;;;4.60;1.90;;;21.60;45.90;;;;;;5011331;28;20192;-62
2022/11/06 03:27:22;;;;;;;4.80;1.83;;;21.60;45.80;;;;;;5002547;28;20201;-62
2022/11/06 03:30:01;;;;;;;7.97;1.85;;;21.60;45.80;;;;;;5008754;28;20226;-62
2022/11/06 03:32:35;;;;;;;4.88;1.90;;;21.60;45.80;;;;;;5009734;28;20196;-58
2022/11/06 03:35:14;;;;;;;8.32;2.13;;;21.60;45.80;;;;;;5009858;28;20251;-62
2022/11/06 03:37:50;;;;;;;7.18;2.03;;;21.60;45.70;;;;;;5009617;28;20208;-59
2022/11/06 03:40:26;;;;;;;5.53;1.83;;;21.60;45.70;;;;;;5009238;28;20700;-54
2022/11/06 03:43:00;;;;;;;3.90;1.55;;;21.60;45.70;;;;;;5009747;28;20220;-61
2022/11/06 03:45:35;;;;;;;4.80;2.10;;;21.60;45.70;;;;;;5009363;28;20203;-52
2022/11/06 03:48:10;;;;;;;3.30;1.55;;;21.60;45.70;;;;;;5009426;28;20208;-55
2022/11/06 03:50:46;;;;;;;4.28;1.35;;;21.60;45.60;;;;;;5010155;28;20229;-63
2022/11/06 03:53:22;;;;;;;5.63;2.00;;;21.60;45.60;;;;;;5002477;28;20200;-57
2022/11/06 03:55:56;;;;;;;5.28;2.15;;;21.60;45.60;;;;;;5009407;28;20656;-62
2022/11/06 03:58:31;;;;;;;4.43;1.70;;;21.70;45.70;;;;;;5009114;28;20657;-59
2022/11/06 04:01:06;;;;;;;5.70;2.13;;;21.60;45.70;;;;;;5009427;28;20196;-61
2022/11/06 04:03:41;;;;;;;5.07;1.92;;;21.60;45.70;;;;;;5010269;28;20204;-59
2022/11/06 04:06:17;;;;;;;6.10;1.80;;;21.70;45.80;;;;;;5008334;28;20202;-59
2022/11/06 04:14:29;;;;;;;4.65;1.90;;;21.70;45.70;;;;;;5010198;28;20208;-55
2022/11/06 04:17:04;;;;;;;5.18;1.95;;;21.70;45.70;;;;;;5009295;28;20285;-53
2022/11/06 04:19:35;;;;;;;3.88;2.08;;;21.70;45.70;;;;;;5009439;28;20798;-62
2022/11/06 04:22:26;;;;;;;4.78;1.90;;;21.70;45.70;;;;;;5009338;28;20223;-54
2022/11/06 04:28:02;;;;;;;7.63;2.00;;;21.70;46.40;;;;;;5008803;28;20208;-60
2022/11/06 04:30:40;;;;;;;4.72;1.77;;;21.70;45.70;;;;;;5007354;28;20231;-60
2022/11/06 04:33:17;;;;;;;5.47;1.75;;;21.70;45.80;;;;;;5004349;28;20197;-59
2022/11/06 04:36:00;;;;;;;6.63;1.75;;;21.70;45.80;;;;;;5012294;28;20224;-55
2022/11/06 04:38:41;;;;;;;4.00;1.83;;;21.70;45.70;;;;;;5010310;28;20213;-59
2022/11/06 04:41:21;;;;;;;5.10;1.92;;;21.80;45.80;;;;;;5012908;28;20218;-59
2022/11/06 04:43:54;;;;;;;5.50;1.90;;;21.70;45.80;;;;;;5012634;28;20240;-54
2022/11/06 04:46:29;;;;;;;5.32;1.90;;;21.80;45.80;;;;;;5012887;28;20200;-55
2022/11/06 04:49:03;;;;;;;7.22;2.53;;;21.70;45.70;;;;;;5014858;28;20412;-61
2022/11/06 04:51:37;;;;;;;5.35;1.70;;;21.80;45.80;;;;;;5012370;28;20204;-52
2022/11/06 04:54:10;;;;;;;4.82;1.83;;;21.70;45.80;;;;;;5014198;28;20207;-55
2022/11/06 04:56:41;;;;;;;6.10;2.00;;;21.80;45.70;;;;;;5013914;28;20235;-49
2022/11/06 04:59:17;;;;;;;5.45;1.80;;;21.80;45.70;;;;;;5013691;28;20217;-53
2022/11/06 05:01:48;;;;;;;4.15;2.00;;;21.70;45.80;;;;;;5014077;28;20201;-50
2022/11/06 05:04:21;;;;;;;5.70;1.80;;;21.70;45.80;;;;;;5014551;28;20199;-52
2022/11/06 05:06:55;;;;;;;4.80;1.85;;;21.70;45.90;;;;;;5014410;28;20212;-50
2022/11/06 05:09:29;;;;;;;5.00;1.92;;;21.70;45.90;;;;;;4994933;28;20267;-47
2022/11/06 05:11:59;;;;;;;5.18;2.40;;;21.70;45.90;;;;;;4994915;28;20304;-53
2022/11/06 05:14:31;;;;;;;6.50;2.00;;;21.70;45.90;;;;;;4994621;28;20684;-50
2022/11/06 05:17:02;;;;;;;6.97;2.00;;;21.70;45.90;;;;;;4994406;28;20229;-56
2022/11/06 05:19:35;;;;;;;5.85;2.00;;;21.70;45.90;;;;;;4994166;28;20685;-49
2022/11/06 05:25:04;;;;;;;5.50;2.05;;;21.70;45.80;;;;;;4933924;29;20747;-55
2022/11/06 05:27:35;;;;;;;3.53;1.73;;;21.70;45.80;;;;;;4981211;28;20560;-52
2022/11/06 05:30:06;;;;;;;4.57;2.00;;;21.70;45.70;;;;;;4994362;28;20709;-52
2022/11/06 05:32:37;;;;;;;5.05;1.90;;;21.70;45.80;;;;;;4994197;28;20658;-53
2022/11/06 05:35:10;;;;;;;4.72;1.75;;;21.70;45.80;;;;;;4993345;28;20197;-51
2022/11/06 05:37:40;;;;;;;5.70;2.13;;;21.70;45.90;;;;;;5000388;28;20212;-53
2022/11/06 05:40:11;;;;;;;6.00;1.80;;;21.70;45.90;;;;;;5012955;28;20597;-52
2022/11/06 05:42:42;;;;;;;4.72;1.90;;;21.70;45.90;;;;;;5013372;28;20204;-47
2022/11/06 05:45:14;;;;;;;4.43;1.77;;;21.70;45.90;;;;;;5013490;28;20207;-63
2022/11/06 05:47:45;;;;;;;4.63;1.70;;;21.70;45.90;;;;;;5013257;28;20567;-61
2022/11/06 05:50:17;;;;;;;5.75;1.85;;;21.70;45.90;;;;;;5013789;28;20217;-59
2022/11/06 05:52:48;;;;;;;5.78;2.42;;;21.70;45.90;;;;;;5013619;28;20656;-60
2022/11/06 05:55:19;;;;;;;5.85;2.28;;;21.70;45.90;;;;;;5013510;28;20703;-61
2022/11/06 05:57:50;;;;;;;4.20;1.77;;;21.70;46.10;;;;;;5013340;28;20189;-62
2022/11/06 06:00:21;;;;;;;6.10;1.95;;;21.70;45.80;;;;;;5013012;28;20271;-61
2022/11/06 06:02:51;;;;;;;4.72;1.70;;;21.70;45.80;;;;;;5012769;28;20200;-62
2022/11/06 06:05:24;;;;;;;4.63;1.67;;;21.60;46.40;;;;;;5012409;28;20196;-60
2022/11/06 06:07:55;;;;;;;6.55;1.95;;;21.70;45.90;;;;;;5012544;28;20415;-56
2022/11/06 06:10:28;;;;;;;4.43;1.98;;;21.70;45.90;;;;;;5012815;28;20605;-62
2022/11/06 06:12:59;;;;;;;4.80;1.88;;;21.60;45.80;;;;;;5013341;28;20204;-61
2022/11/06 06:15:30;;;;;;;6.65;2.20;;;21.60;45.90;;;;;;5012875;28;20225;-62
2022/11/06 06:18:01;;;;;;;4.38;1.85;;;21.60;45.90;;;;;;5012935;28;20197;-62
2022/11/06 06:20:34;;;;;;;5.10;1.80;;;21.60;45.90;;;;;;5012923;28;20221;-59
2022/11/06 06:23:05;;;;;;;5.57;1.80;;;21.60;45.90;;;;;;5012443;28;20207;-56
2022/11/06 06:25:36;;;;;;;5.68;2.20;;;21.60;45.90;;;;;;5012565;28;20204;-59
2022/11/06 06:28:06;;;;;;;4.30;1.73;;;21.50;45.80;;;;;;5012816;28;20601;-52
2022/11/06 06:30:37;;;;;;;4.70;1.95;;;21.50;45.80;;;;;;5011565;28;20592;-61
2022/11/06 06:33:08;;;;;;;4.82;1.80;;;21.50;45.80;;;;;;5012576;28;20197;-60
2022/11/06 06:35:41;;;;;;;3.92;2.08;;;21.50;45.80;;;;;;5012238;28;20217;-53
2022/11/06 06:38:12;;;;;;;5.57;1.80;;;21.60;45.80;;;;;;5013085;28;20330;-59
2022/11/06 06:40:43;;;;;;;4.55;1.70;;;21.50;45.80;;;;;;5014261;28;20645;-61
2022/11/06 06:43:13;;;;;;;5.15;1.80;;;21.50;45.80;;;;;;5012878;28;20459;-50
2022/11/06 06:45:44;;;;;;;5.90;2.10;;;21.50;45.90;;;;;;5011596;28;20208;-61
2022/11/06 06:48:15;;;;;;;3.95;1.88;;;21.50;45.90;;;;;;5012327;28;20702;-61
2022/11/06 06:50:47;;;;;;;5.22;2.00;;;21.50;45.90;;;;;;5012658;28;20200;-61
2022/11/06 06:53:18;;;;;;;4.78;1.75;;;21.50;45.90;;;;;;5012330;28;20205;-47
2022/11/06 06:55:49;;;;;;;4.13;1.88;;;21.50;46.00;;;;;;5011424;28;20638;-62
2022/11/06 06:58:20;;;;;;;6.85;2.13;;;21.40;45.90;;;;;;5014865;28;20200;-58
2022/11/06 07:00:50;;;;;;;4.93;1.75;;;21.40;45.90;;;;;;5012003;28;20193;-61
2022/11/06 07:03:21;;;;;;;4.70;1.70;;;21.40;45.90;;;;;;5012198;28;20196;-62
2022/11/06 07:05:54;;;;;;;4.20;1.77;;;21.50;45.90;;;;;;5012012;28;20215;-59
2022/11/06 07:08:27;;;;;;;4.57;1.80;;;21.40;45.80;;;;;;5011463;28;20205;-60
2022/11/06 07:11:05;;;;;;;4.47;1.90;;;21.40;45.80;;;;;;5011515;28;20568;-58
2022/11/06 07:13:37;;;;;;;4.18;1.85;;;21.40;45.80;;;;;;5012157;28;20201;-58
2022/11/06 07:16:08;;;;;;;4.35;1.92;;;21.40;45.80;;;;;;5011728;28;20224;-61
2022/11/06 07:18:40;;;;;;;5.93;1.48;;;21.40;45.80;;;;;;5011794;28;20217;-61
2022/11/06 07:21:14;;;;;;;3.05;1.50;;;21.40;45.90;;;;;;5011671;28;20200;-60
2022/11/06 07:23:45;;;;;;;3.38;1.75;;;21.40;45.90;;;;;;5011626;28;21593;-59
2022/11/06 07:26:16;;;;;;;3.03;1.50;;;21.30;45.80;;;;;;5011920;28;20212;-58
2022/11/06 07:28:46;;;;;;;4.47;1.60;;;21.30;45.80;;;;;;5005830;28;20792;-54
2022/11/06 07:31:17;;;;;;;4.85;1.90;;;21.30;45.90;;;;;;5008336;28;20204;-61
2022/11/06 07:33:48;;;;;;;4.88;1.90;;;21.30;46.00;;;;;;5009981;28;20201;-60
2022/11/06 07:36:20;;;;;;;4.93;1.60;;;21.30;45.90;;;;;;5015745;28;20577;-53
2022/11/06 07:38:51;;;;;;;5.30;1.98;;;21.30;45.90;;;;;;5009524;28;20221;-58
2022/11/06 07:41:22;;;;;;;4.65;1.80;;;21.30;46.00;;;;;;5009368;28;20215;-59
2022/11/06 07:43:52;;;;;;;4.97;1.77;;;21.30;46.00;;;;;;5010367;28;20201;-59
2022/11/06 07:46:23;;;;;;;2.85;1.40;;;21.30;46.00;;;;;;5009660;28;20257;-59
2022/11/06 07:48:54;;;;;;;4.03;1.60;;;21.30;46.00;;;;;;5005376;28;20432;-59
2022/11/06 07:51:29;;;;;;;3.65;1.52;;;21.30;46.00;;;;;;5009639;28;20217;-56
2022/11/06 07:54:00;;;;;;;3.33;1.70;;;21.30;46.00;;;;;;5009919;28;20196;-59
2022/11/06 07:56:31;;;;;;;4.10;1.67;;;21.30;46.00;;;;;;5002526;28;20243;-48
2022/11/06 07:59:01;;;;;;;3.22;1.60;;;21.30;46.10;;;;;;5009865;28;20227;-60
2022/11/06 08:01:32;;;;;;;4.22;1.73;;;21.30;46.10;;;;;;5001953;28;20203;-60
2022/11/06 08:04:03;;;;;;;4.05;1.73;;;21.20;46.10;;;;;;5009437;28;20204;-58
2022/11/06 08:06:35;;;;;;;3.40;1.70;;;21.20;46.10;;;;;;5003258;28;20204;-52
2022/11/06 08:09:08;;;;;;;3.83;1.50;;;21.20;46.10;;;;;;5011352;28;20217;-54
2022/11/06 08:11:39;;;;;;;5.97;1.60;;;21.20;46.10;;;;;;5012572;28;20204;-58
2022/11/06 08:14:11;;;;;;;4.15;1.77;;;21.20;46.10;;;;;;5013182;28;20783;-55
2022/11/06 08:16:41;;;;;;;3.03;1.20;;;21.20;46.10;;;;;;5013674;28;20224;-50
2022/11/06 08:19:12;;;;;;;6.65;2.05;;;21.20;46.00;;;;;;5012822;28;20220;-51
2022/11/06 08:21:45;;;;;;;3.67;1.67;;;21.20;46.00;;;;;;5013373;28;20205;-57
2022/11/06 08:24:15;;;;;;;4.20;1.90;;;21.20;46.00;;;;;;5012256;28;20212;-53
2022/11/06 08:26:46;;;;;;;3.45;1.88;;;21.20;46.10;;;;;;5013262;28;20214;-54
2022/11/06 08:29:17;;;;;;;2.90;1.52;;;21.20;46.10;;;;;;5011326;28;20212;-59
2022/11/06 08:31:48;;;;;;;3.90;1.52;;;21.10;46.00;;;;;;5013721;28;20216;-60
2022/11/06 08:34:18;;;;;;;4.68;1.63;;;21.20;46.70;;;;;;5012251;28;20201;-61
2022/11/06 08:36:51;;;;;;;4.03;1.35;;;21.20;46.10;;;;;;5012588;28;20746;-62
2022/11/06 08:39:22;;;;;;;3.65;1.48;;;21.10;46.10;;;;;;5011956;28;20672;-59
2022/11/06 08:41:52;;;;;;;4.35;1.75;;;21.10;46.10;;;;;;5016061;28;20203;-53
2022/11/06 08:44:25;;;;;;;3.92;1.42;;;21.10;46.10;;;;;;5012851;28;20637;-53
2022/11/06 08:46:55;;;;;;;2.92;1.50;;;21.10;46.10;;;;;;5013056;28;20201;-60
2022/11/06 08:49:26;;;;;;;3.60;1.60;;;21.10;46.00;;;;;;5012481;28;20239;-59
2022/11/06 08:51:59;;;;;;;3.10;1.30;;;21.10;46.10;;;;;;5013427;28;20205;-53
2022/11/06 08:54:30;;;;;;;3.28;1.40;;;21.10;46.10;;;;;;5012092;28;20204;-49
2022/11/06 08:57:01;;;;;;;3.67;1.50;;;21.00;46.00;;;;;;5015215;28;20221;-57
2022/11/06 08:59:32;;;;;;;3.40;1.33;;;21.10;46.00;;;;;;5012770;28;20220;-63
2022/11/06 09:02:02;;;;;;;3.95;1.60;;;21.10;46.00;;;;;;5012906;28;20197;-61
2022/11/06 09:04:33;;;;;;;4.22;1.70;;;21.00;46.00;;;;;;5012195;28;20197;-56
2022/11/06 09:07:06;;;;;;;2.88;1.45;;;21.00;46.10;;;;;;5012368;28;20204;-62
2022/11/06 09:09:36;;;;;;;3.65;1.63;;;21.00;46.10;;;;;;5008875;28;20216;-63
2022/11/06 09:12:08;;;;;;;2.50;1.25;;;21.00;46.10;;;;;;5012184;28;20676;-58
2022/11/06 09:14:38;;;;;;;3.42;1.33;;;21.00;46.10;;;;;;5012726;28;20204;-63
2022/11/06 09:17:09;;;;;;;3.42;1.48;;;20.90;46.00;;;;;;5011520;28;20224;-60
2022/11/06 09:19:40;;;;;;;2.20;1.10;;;21.00;46.10;;;;;;5009660;28;20217;-63
2022/11/06 09:22:13;;;;;;;2.97;1.23;;;20.90;46.00;;;;;;5012301;28;20204;-57
2022/11/06 09:24:43;;;;;;;3.45;1.40;;;20.90;46.00;;;;;;5012570;28;20201;-62
2022/11/06 09:27:14;;;;;;;3.17;1.33;;;21.00;46.10;;;;;;5011695;28;20221;-62
2022/11/06 09:29:46;;;;;;;2.63;1.33;;;20.90;46.00;;;;;;5011365;28;20221;-59
2022/11/06 09:32:17;;;;;;;2.35;1.67;;;20.90;46.00;;;;;;5011265;28;20197;-55
2022/11/06 09:34:48;;;;;;;2.92;1.45;;;20.90;46.10;;;;;;5011433;28;20567;-59
2022/11/06 09:37:20;;;;;;;3.13;1.35;;;20.90;46.10;;;;;;5012232;28;20715;-59
2022/11/06 09:39:51;;;;;;;4.30;1.67;;;20.80;46.10;;;;;;5012517;28;20724;-58
2022/11/06 09:42:39;;;;;;;3.22;1.60;;;20.80;46.10;;;;;;5011257;28;20211;-53
2022/11/06 09:45:16;;;;;;;2.50;1.20;;;20.80;46.10;;;;;;5011175;28;20204;-49
2022/11/06 09:47:50;;;;;;;2.95;1.20;;;20.80;46.10;;;;;;5010701;28;20199;-53
2022/11/06 09:50:25;;;;;;;3.25;1.70;;;20.80;46.20;;;;;;5012169;28;20227;-57
2022/11/06 09:53:03;;;;;;;2.50;1.45;;;20.70;46.10;;;;;;5014433;28;20203;-58
2022/11/06 09:55:40;;;;;;;2.67;1.20;;;20.70;46.10;;;;;;5013184;28;20259;-58
2022/11/06 09:58:16;;;;;;;1.80;1.10;;;20.70;46.10;;;;;;5013091;28;20220;-55
2022/11/06 10:00:47;;;;;;;2.83;1.30;;;20.70;46.10;;;;;;5012664;28;20201;-59
2022/11/06 10:03:25;;;;;;;2.72;1.40;;;20.70;46.10;;;;;;5013429;28;20197;-59
2022/11/06 10:05:56;;;;;;;2.80;1.50;;;20.60;46.00;;;;;;5013269;28;20199;-61
2022/11/06 10:08:30;;;;;;;2.95;1.30;;;20.60;46.10;;;;;;5013254;28;20204;-60
2022/11/06 10:11:07;;;;;;;2.40;1.30;;;20.60;46.10;;;;;;5013366;28;20199;-54
2022/11/06 10:13:54;;;;;;;2.47;1.48;;;20.60;46.10;;;;;;5013565;28;20197;-62
2022/11/06 10:16:35;;;;;;;2.42;1.30;;;20.50;46.00;;;;;;5013052;28;20197;-57
2022/11/06 10:19:12;;;;;;;2.55;1.38;;;20.50;46.00;;;;;;5012528;28;20683;-57
2022/11/06 10:21:50;;;;;;;2.60;1.25;;;20.50;46.00;;;;;;5012890;28;20189;-58
2022/11/06 10:24:31;;;;;;;1.85;1.10;;;20.50;46.10;;;;;;5012874;28;20196;-57
2022/11/06 10:27:06;;;;;;;1.75;1.10;;;20.50;46.10;;;;;;5012986;28;20201;-59
2022/11/06 10:29:48;;;;;;;2.00;1.10;;;20.40;46.00;;;;;;5011828;28;20380;-54
2022/11/06 10:32:36;;;;;;;2.92;1.42;;;20.40;46.10;;;;;;5012671;28;20212;-56
2022/11/06 10:35:16;;;;;;;3.22;1.42;;;20.40;46.10;;;;;;5012664;28;20197;-61
2022/11/06 10:37:54;;;;;;;3.22;1.27;;;20.40;46.00;;;;;;5012997;28;20224;-61
2022/11/06 10:40:31;;;;;;;2.45;1.23;;;20.30;46.00;;;;;;5013225;28;20219;-61
2022/11/06 10:43:14;;;;;;;2.80;1.30;;;20.30;46.10;;;;;;5012939;28;20211;-57
2022/11/06 10:45:48;;;;;;;3.22;1.48;;;20.30;46.00;;;;;;5012464;28;20201;-60
2022/11/06 10:48:24;;;;;;;2.40;1.27;;;20.30;46.10;;;;;;5027453;28;20199;-61
2022/11/06 10:51:06;;;;;;;1.65;1.17;;;20.30;46.10;;;;;;5032677;28;20678;-61
2022/11/06 10:53:45;;;;;;;1.80;1.20;;;20.20;46.10;;;;;;5032049;28;20210;-55
2022/11/06 10:56:36;;;;;;;1.95;1.10;;;20.20;46.10;;;;;;5031965;28;20192;-61
2022/11/06 10:59:08;;;;;;;2.33;1.40;;;20.20;46.10;;;;;;5032158;28;20224;-62
2022/11/06 11:01:39;;;;;;;1.70;1.10;;;20.20;46.10;;;;;;5032261;28;20660;-60
2022/11/06 11:04:12;;;;;;;2.83;1.20;;;20.20;46.10;;;;;;5028605;28;20185;-58
2022/11/06 11:06:43;;;;;;;3.80;1.35;;;20.10;46.10;;;;;;5032038;28;20196;-62
2022/11/06 11:09:33;;;;;;;1.83;1.08;;;20.10;46.10;;;;;;5012366;28;20259;-59
2022/11/06 11:12:06;;;;;;;2.42;1.27;;;20.10;46.20;;;;;;5012448;28;20201;-62
2022/11/06 11:14:37;;;;;;;2.30;1.13;;;20.10;46.20;;;;;;5012297;28;20652;-61
2022/11/06 11:17:11;;;;;;;3.72;1.60;;;20.00;46.10;;;;;;5012379;28;20227;-60
2022/11/06 11:19:42;;;;;;;2.45;1.30;;;20.00;46.20;;;;;;5012235;28;20512;-58
2022/11/06 11:22:24;;;;;;;2.35;1.20;;;20.00;46.10;;;;;;5012090;28;20204;-53
2022/11/06 11:25:06;;;;;;;2.75;1.38;;;20.00;46.20;;;;;;5012089;28;20292;-56
2022/11/06 11:27:45;;;;;;;1.77;1.00;;;20.00;46.20;;;;;;5011943;28;20711;-58
2022/11/06 11:30:25;;;;;;;2.47;1.25;;;19.90;46.10;;;;;;5011693;28;20228;-61
2022/11/06 11:32:56;;;;;;;3.58;1.55;;;19.90;46.20;;;;;;5011614;28;20196;-60
2022/11/06 11:35:30;;;;;;;2.17;1.00;;;19.90;46.20;;;;;;5011532;28;20189;-58
2022/11/06 11:38:12;;;;;;;2.78;1.30;;;19.90;46.20;;;;;;5011525;28;20233;-56
2022/11/06 11:40:43;;;;;;;3.20;1.27;;;19.90;46.20;;;;;;5011848;28;20209;-59
2022/11/06 11:43:31;;;;;;;2.45;1.13;;;19.90;46.20;;;;;;5011484;28;20196;-58
2022/11/06 11:46:13;;;;;;;2.25;1.20;;;19.80;46.30;;;;;;5011617;28;20657;-59
2022/11/06 11:48:49;;;;;;;2.63;1.27;;;19.80;46.20;;;;;;5011462;28;20224;-59
2022/11/06 11:51:38;;;;;;;2.28;1.05;;;19.80;46.20;;;;;;5011819;28;20216;-60
2022/11/06 11:54:18;;;;;;;2.88;1.27;;;19.80;46.20;;;;;;5011540;28;20262;-60
2022/11/06 11:56:55;;;;;;;2.22;1.00;;;19.70;46.10;;;;;;5011791;28;20197;-58
2022/11/06 11:59:30;;;;;;;1.88;1.10;;;19.70;46.10;;;;;;5011487;28;20231;-54
2022/11/06 12:02:05;;;;;;;2.25;1.13;;;19.70;46.10;;;;;;5011976;28;20211;-57
2022/11/06 12:04:40;;;;;;;2.95;1.00;;;19.70;46.20;;;;;;5011606;28;20571;-58
2022/11/06 12:07:24;;;;;;;2.25;1.15;;;19.70;46.20;;;;;;5011609;28;20196;-61
2022/11/06 12:09:58;;;;;;;1.60;0.98;;;19.60;46.10;;;;;;5010705;28;20225;-59
2022/11/06 12:12:32;;;;;;;2.72;1.25;;;19.60;46.10;;;;;;5010630;28;20209;-62
2022/11/06 12:15:20;;;;;;;3.47;1.20;;;19.60;46.10;;;;;;5011043;28;20193;-59
2022/11/06 12:17:56;;;;;;;2.13;1.23;;;19.60;46.10;;;;;;5011339;28;20229;-58
2022/11/06 12:20:31;;;;;;;1.92;1.02;;;19.60;46.10;;;;;;5011283;28;20579;-58
2022/11/06 12:23:03;;;;;;;1.95;1.00;;;19.60;46.10;;;;;;5011585;28;20207;-60
2022/11/06 12:25:38;;;;;;;2.47;1.33;;;19.60;46.10;;;;;;5011105;28;20670;-58
2022/11/06 12:28:15;;;;;;;2.72;1.10;;;19.50;46.10;;;;;;5011311;28;20660;-61
2022/11/06 12:30:52;;;;;;;2.60;1.25;;;19.50;46.10;;;;;;5011295;28;20561;-57
2022/11/06 12:33:26;;;;;;;2.35;1.10;;;19.50;46.00;;;;;;5011265;28;20208;-60
2022/11/06 12:36:02;;;;;;;2.55;1.58;;;19.50;46.10;;;;;;5011369;28;20212;-61
2022/11/06 12:38:42;;;;;;;2.05;1.25;;;19.50;46.50;;;;;;5010947;28;20255;-55
2022/11/06 12:41:20;;;;;;;1.55;1.00;;;19.40;46.10;;;;;;5015795;28;20188;-58
2022/11/06 12:43:52;;;;;;;1.80;1.10;;;19.40;46.10;;;;;;5030801;28;20200;-60
2022/11/06 12:46:41;;;;;;;2.08;1.00;;;19.40;46.10;;;;;;5031146;28;20193;-54
2022/11/06 12:49:49;;;;;;;1.65;1.00;;;19.40;46.20;;;;;;5030401;28;20692;-57
2022/11/06 12:52:35;;;;;;;2.40;1.30;;;19.40;46.10;;;;;;5030624;28;20598;-56
2022/11/06 12:55:18;;;;;;;2.53;1.27;;;19.40;46.10;;;;;;5033899;28;20203;-56
2022/11/06 12:58:03;;;;;;;1.88;1.20;;;19.40;46.10;;;;;;5034108;28;20238;-63
2022/11/06 13:00:41;;;;;;;2.60;1.38;;;19.30;46.10;;;;;;5034635;28;20220;-60
2022/11/06 13:03:36;;;;;;;1.80;1.00;;;19.30;46.00;;;;;;5034649;28;20202;-63
2022/11/06 13:06:13;;;;;;;1.85;1.02;;;19.30;46.10;;;;;;5031442;28;20193;-63
2022/11/06 13:08:56;;;;;;;2.22;1.30;;;19.30;46.00;;;;;;5018624;28;20225;-61
2022/11/06 13:11:37;;;;;;;2.33;1.23;;;19.30;46.00;;;;;;5014320;28;20254;-64
2022/11/06 13:14:19;;;;;;;2.05;1.17;;;19.30;46.10;;;;;;5014400;28;20657;-57
2022/11/06 13:16:56;;;;;;;1.83;1.02;;;19.30;46.10;;;;;;5013832;28;20661;-64
2022/11/06 13:19:34;;;;;;;2.42;1.10;;;19.20;46.10;;;;;;5014160;28;20236;-59
2022/11/06 13:22:27;;;;;;;2.05;1.17;;;19.20;46.10;;;;;;5014246;28;20200;-64
2022/11/06 13:25:05;;;;;;;2.08;1.00;;;19.20;46.10;;;;;;5013943;28;20224;-61
2022/11/06 13:27:43;;;;;;;2.65;1.25;;;19.20;46.10;;;;;;5014083;28;20196;-63
2022/11/06 13:30:19;;;;;;;1.00;0.63;;;19.20;46.00;;;;;;5014117;28;20225;-65
2022/11/06 13:33:00;;;;;;;1.10;0.90;;;19.20;46.00;;;;;;5014288;28;20698;-64
2022/11/06 13:35:35;;;;;;;2.65;1.20;;;19.20;46.00;;;;;;5013914;28;20200;-64
2022/11/06 13:38:10;;;;;;;2.22;1.10;;;19.20;46.00;;;;;;5013580;28;20224;-58
2022/11/06 13:40:44;;;;;;;1.63;1.17;;;19.20;45.90;;;;;;5014113;28;20215;-64